<?xml version="1.0" encoding="utf-8"?>
<gpx xmlns:xsi="http://www.w3.org/2001/XMLSchema-instance" xmlns:xsd="http://www.w3.org/2001/XMLSchema" version="1.1" creator="Shapelink.com" xmlns="http://www.topografix.com/GPX/1/1" xmlns:gpxtpx="http://www.garmin.com/xmlschemas/TrackPointExtension/v1">
  <metadata>
    <name>Floorball 1.23 km, 2019-12-24</name>
    <desc></desc>
    <author><name>Peter Littke</name></author> 
    <time>2019-12-24T19:04:46Z</time>
  </metadata>
  <trk>
    <name>Floorball 1.23 km, 2019-12-24</name>
    <trkseg>
      <trkpt lat="59.340479" lon="18.085266">
        <ele>23</ele>
        <time>2019-12-24T19:05:00Z</time>
      </trkpt>
      <trkpt lat="59.340451" lon="18.08545">
        <ele>16</ele>
        <time>2019-12-24T19:05:40Z</time>
      </trkpt>
      <trkpt lat="59.340544" lon="18.085428">
        <ele>0</ele>
        <time>2019-12-24T19:05:57Z</time>
      </trkpt>
      <trkpt lat="59.340619" lon="18.085526">
        <ele>14</ele>
        <time>2019-12-24T19:06:06Z</time>
      </trkpt>
      <trkpt lat="59.340597" lon="18.085353">
        <ele>0</ele>
        <time>2019-12-24T19:06:46Z</time>
      </trkpt>
      <trkpt lat="59.340522" lon="18.08525">
        <ele>11</ele>
        <time>2019-12-24T19:07:18Z</time>
      </trkpt>
      <trkpt lat="59.340575" lon="18.085398">
        <ele>13</ele>
        <time>2019-12-24T19:07:36Z</time>
      </trkpt>
      <trkpt lat="59.340635" lon="18.085538">
        <ele>13</ele>
        <time>2019-12-24T19:08:09Z</time>
      </trkpt>
      <trkpt lat="59.340556" lon="18.085454">
        <ele>0</ele>
        <time>2019-12-24T19:08:50Z</time>
      </trkpt>
      <trkpt lat="59.34062" lon="18.085585">
        <ele>9</ele>
        <time>2019-12-24T19:09:14Z</time>
      </trkpt>
      <trkpt lat="59.340688" lon="18.085465">
        <ele>0</ele>
        <time>2019-12-24T19:09:31Z</time>
      </trkpt>
      <trkpt lat="59.340595" lon="18.085437">
        <ele>7</ele>
        <time>2019-12-24T19:10:44Z</time>
      </trkpt>
      <trkpt lat="59.340662" lon="18.085568">
        <ele>9</ele>
        <time>2019-12-24T19:11:50Z</time>
      </trkpt>
      <trkpt lat="59.340624" lon="18.085388">
        <ele>8</ele>
        <time>2019-12-24T19:12:03Z</time>
      </trkpt>
      <trkpt lat="59.340545" lon="18.085474">
        <ele>0</ele>
        <time>2019-12-24T19:12:22Z</time>
      </trkpt>
      <trkpt lat="59.340456" lon="18.085519">
        <ele>0</ele>
        <time>2019-12-24T19:12:40Z</time>
      </trkpt>
      <trkpt lat="59.340416" lon="18.085356">
        <ele>0</ele>
        <time>2019-12-24T19:12:52Z</time>
      </trkpt>
      <trkpt lat="59.340486" lon="18.085241">
        <ele>11</ele>
        <time>2019-12-24T19:13:14Z</time>
      </trkpt>
      <trkpt lat="59.340505" lon="18.08542">
        <ele>0</ele>
        <time>2019-12-24T19:13:34Z</time>
      </trkpt>
      <trkpt lat="59.340565" lon="18.085564">
        <ele>0</ele>
        <time>2019-12-24T19:13:57Z</time>
      </trkpt>
      <trkpt lat="59.340658" lon="18.085556">
        <ele>12</ele>
        <time>2019-12-24T19:14:10Z</time>
      </trkpt>
      <trkpt lat="59.340614" lon="18.085395">
        <ele>11</ele>
        <time>2019-12-24T19:14:26Z</time>
      </trkpt>
      <trkpt lat="59.340558" lon="18.085543">
        <ele>0</ele>
        <time>2019-12-24T19:14:56Z</time>
      </trkpt>
      <trkpt lat="59.340467" lon="18.085474">
        <ele>10</ele>
        <time>2019-12-24T19:15:03Z</time>
      </trkpt>
      <trkpt lat="59.340416" lon="18.085326">
        <ele>0</ele>
        <time>2019-12-24T19:15:33Z</time>
      </trkpt>
      <trkpt lat="59.340329" lon="18.085251">
        <ele>0</ele>
        <time>2019-12-24T19:15:56Z</time>
      </trkpt>
      <trkpt lat="59.340386" lon="18.085407">
        <ele>4</ele>
        <time>2019-12-24T19:16:03Z</time>
      </trkpt>
      <trkpt lat="59.340431" lon="18.085565">
        <ele>0</ele>
        <time>2019-12-24T19:16:08Z</time>
      </trkpt>
      <trkpt lat="59.340527" lon="18.085584">
        <ele>0</ele>
        <time>2019-12-24T19:16:17Z</time>
      </trkpt>
      <trkpt lat="59.340449" lon="18.085465">
        <ele>0</ele>
        <time>2019-12-24T19:16:31Z</time>
      </trkpt>
      <trkpt lat="59.340399" lon="18.085318">
        <ele>0</ele>
        <time>2019-12-24T19:16:44Z</time>
      </trkpt>
      <trkpt lat="59.34049" lon="18.085362">
        <ele>4</ele>
        <time>2019-12-24T19:17:06Z</time>
      </trkpt>
      <trkpt lat="59.340555" lon="18.0855">
        <ele>0</ele>
        <time>2019-12-24T19:17:46Z</time>
      </trkpt>
      <trkpt lat="59.340462" lon="18.085568">
        <ele>0</ele>
        <time>2019-12-24T19:17:54Z</time>
      </trkpt>
      <trkpt lat="59.34037" lon="18.085524">
        <ele>0</ele>
        <time>2019-12-24T19:18:00Z</time>
      </trkpt>
      <trkpt lat="59.340382" lon="18.085346">
        <ele>7</ele>
        <time>2019-12-24T19:18:16Z</time>
      </trkpt>
      <trkpt lat="59.340489" lon="18.085324">
        <ele>0</ele>
        <time>2019-12-24T19:18:26Z</time>
      </trkpt>
      <trkpt lat="59.340496" lon="18.085511">
        <ele>0</ele>
        <time>2019-12-24T19:18:32Z</time>
      </trkpt>
      <trkpt lat="59.340579" lon="18.085579">
        <ele>2</ele>
        <time>2019-12-24T19:19:16Z</time>
      </trkpt>
      <trkpt lat="59.340451" lon="18.085529">
        <ele>0</ele>
        <time>2019-12-24T19:19:54Z</time>
      </trkpt>
      <trkpt lat="59.340317" lon="18.08563">
        <ele>0</ele>
        <time>2019-12-24T19:19:56Z</time>
      </trkpt>
      <trkpt lat="59.340212" lon="18.085719">
        <ele>0</ele>
        <time>2019-12-24T19:19:58Z</time>
      </trkpt>
      <trkpt lat="59.340131" lon="18.085817">
        <ele>0</ele>
        <time>2019-12-24T19:20:00Z</time>
      </trkpt>
      <trkpt lat="59.340099" lon="18.085984">
        <ele>0</ele>
        <time>2019-12-24T19:20:06Z</time>
      </trkpt>
      <trkpt lat="59.340176" lon="18.085878">
        <ele>0</ele>
        <time>2019-12-24T19:20:16Z</time>
      </trkpt>
      <trkpt lat="59.340218" lon="18.085695">
        <ele>0</ele>
        <time>2019-12-24T19:20:20Z</time>
      </trkpt>
      <trkpt lat="59.340289" lon="18.085543">
        <ele>0</ele>
        <time>2019-12-24T19:20:30Z</time>
      </trkpt>
      <trkpt lat="59.340379" lon="18.085543">
        <ele>0</ele>
        <time>2019-12-24T19:20:39Z</time>
      </trkpt>
      <trkpt lat="59.340392" lon="18.08536">
        <ele>0</ele>
        <time>2019-12-24T19:20:48Z</time>
      </trkpt>
      <trkpt lat="59.340456" lon="18.085496">
        <ele>0</ele>
        <time>2019-12-24T19:21:27Z</time>
      </trkpt>
      <trkpt lat="59.340421" lon="18.085326">
        <ele>0</ele>
        <time>2019-12-24T19:22:13Z</time>
      </trkpt>
      <trkpt lat="59.340359" lon="18.085459">
        <ele>0</ele>
        <time>2019-12-24T19:22:46Z</time>
      </trkpt>
      <trkpt lat="59.340428" lon="18.08529">
        <ele>0</ele>
        <time>2019-12-24T19:22:58Z</time>
      </trkpt>
      <trkpt lat="59.34036" lon="18.085173">
        <ele>0</ele>
        <time>2019-12-24T19:23:06Z</time>
      </trkpt>
      <trkpt lat="59.340443" lon="18.085276">
        <ele>0</ele>
        <time>2019-12-24T19:23:18Z</time>
      </trkpt>
      <trkpt lat="59.340537" lon="18.085331">
        <ele>0</ele>
        <time>2019-12-24T19:23:36Z</time>
      </trkpt>
      <trkpt lat="59.340448" lon="18.085181">
        <ele>0</ele>
        <time>2019-12-24T19:23:50Z</time>
      </trkpt>
      <trkpt lat="59.340363" lon="18.084961">
        <ele>0</ele>
        <time>2019-12-24T19:23:52Z</time>
      </trkpt>
      <trkpt lat="59.340342" lon="18.084758">
        <ele>0</ele>
        <time>2019-12-24T19:23:54Z</time>
      </trkpt>
      <trkpt lat="59.340271" lon="18.084601">
        <ele>0</ele>
        <time>2019-12-24T19:23:57Z</time>
      </trkpt>
      <trkpt lat="59.340362" lon="18.084684">
        <ele>2</ele>
        <time>2019-12-24T19:24:07Z</time>
      </trkpt>
      <trkpt lat="59.340392" lon="18.084888">
        <ele>0</ele>
        <time>2019-12-24T19:24:11Z</time>
      </trkpt>
      <trkpt lat="59.340433" lon="18.085076">
        <ele>0</ele>
        <time>2019-12-24T19:24:17Z</time>
      </trkpt>
      <trkpt lat="59.340458" lon="18.085253">
        <ele>0</ele>
        <time>2019-12-24T19:24:49Z</time>
      </trkpt>
      <trkpt lat="59.340508" lon="18.085404">
        <ele>4</ele>
        <time>2019-12-24T19:25:08Z</time>
      </trkpt>
      <trkpt lat="59.340421" lon="18.08545">
        <ele>0</ele>
        <time>2019-12-24T19:25:27Z</time>
      </trkpt>
      <trkpt lat="59.340511" lon="18.085413">
        <ele>0</ele>
        <time>2019-12-24T19:25:58Z</time>
      </trkpt>
      <trkpt lat="59.340513" lon="18.085234">
        <ele>5</ele>
        <time>2019-12-24T19:26:07Z</time>
      </trkpt>
      <trkpt lat="59.340438" lon="18.085336">
        <ele>0</ele>
        <time>2019-12-24T19:26:34Z</time>
      </trkpt>
      <trkpt lat="59.340431" lon="18.085529">
        <ele>0</ele>
        <time>2019-12-24T19:26:46Z</time>
      </trkpt>
      <trkpt lat="59.340524" lon="18.085527">
        <ele>0</ele>
        <time>2019-12-24T19:26:58Z</time>
      </trkpt>
      <trkpt lat="59.340546" lon="18.085351">
        <ele>2</ele>
        <time>2019-12-24T19:27:11Z</time>
      </trkpt>
      <trkpt lat="59.340571" lon="18.085527">
        <ele>6</ele>
        <time>2019-12-24T19:29:00Z</time>
      </trkpt>
      <trkpt lat="59.340481" lon="18.085466">
        <ele>8</ele>
        <time>2019-12-24T19:29:14Z</time>
      </trkpt>
      <trkpt lat="59.340492" lon="18.085287">
        <ele>0</ele>
        <time>2019-12-24T19:29:22Z</time>
      </trkpt>
      <trkpt lat="59.340496" lon="18.085469">
        <ele>9</ele>
        <time>2019-12-24T19:29:46Z</time>
      </trkpt>
      <trkpt lat="59.340535" lon="18.08563">
        <ele>12</ele>
        <time>2019-12-24T19:30:28Z</time>
      </trkpt>
      <trkpt lat="59.340441" lon="18.085613">
        <ele>10</ele>
        <time>2019-12-24T19:31:13Z</time>
      </trkpt>
      <trkpt lat="59.340445" lon="18.085433">
        <ele>0</ele>
        <time>2019-12-24T19:31:27Z</time>
      </trkpt>
      <trkpt lat="59.340513" lon="18.085317">
        <ele>0</ele>
        <time>2019-12-24T19:31:48Z</time>
      </trkpt>
      <trkpt lat="59.340432" lon="18.08522">
        <ele>12</ele>
        <time>2019-12-24T19:32:31Z</time>
      </trkpt>
      <trkpt lat="59.340466" lon="18.08503">
        <ele>0</ele>
        <time>2019-12-24T19:32:40Z</time>
      </trkpt>
      <trkpt lat="59.340506" lon="18.0852">
        <ele>12</ele>
        <time>2019-12-24T19:33:07Z</time>
      </trkpt>
      <trkpt lat="59.340534" lon="18.085381">
        <ele>0</ele>
        <time>2019-12-24T19:33:20Z</time>
      </trkpt>
      <trkpt lat="59.340512" lon="18.085561">
        <ele>15</ele>
        <time>2019-12-24T19:34:17Z</time>
      </trkpt>
      <trkpt lat="59.340602" lon="18.085583">
        <ele>0</ele>
        <time>2019-12-24T19:34:52Z</time>
      </trkpt>
      <trkpt lat="59.340697" lon="18.085548">
        <ele>0</ele>
        <time>2019-12-24T19:35:00Z</time>
      </trkpt>
      <trkpt lat="59.340657" lon="18.085372">
        <ele>18</ele>
        <time>2019-12-24T19:35:17Z</time>
      </trkpt>
      <trkpt lat="59.340557" lon="18.085381">
        <ele>0</ele>
        <time>2019-12-24T19:35:23Z</time>
      </trkpt>
      <trkpt lat="59.340576" lon="18.085555">
        <ele>21</ele>
        <time>2019-12-24T19:36:50Z</time>
      </trkpt>
      <trkpt lat="59.340649" lon="18.085679">
        <ele>21</ele>
        <time>2019-12-24T19:37:08Z</time>
      </trkpt>
      <trkpt lat="59.340675" lon="18.085509">
        <ele>0</ele>
        <time>2019-12-24T19:37:19Z</time>
      </trkpt>
      <trkpt lat="59.340582" lon="18.08542">
        <ele>0</ele>
        <time>2019-12-24T19:37:27Z</time>
      </trkpt>
      <trkpt lat="59.340525" lon="18.08527">
        <ele>20</ele>
        <time>2019-12-24T19:37:36Z</time>
      </trkpt>
      <trkpt lat="59.34051" lon="18.085445">
        <ele>17</ele>
        <time>2019-12-24T19:38:30Z</time>
      </trkpt>
      <trkpt lat="59.340594" lon="18.085359">
        <ele>17</ele>
        <time>2019-12-24T19:39:33Z</time>
      </trkpt>
      <trkpt lat="59.340506" lon="18.08531">
        <ele>15</ele>
        <time>2019-12-24T19:40:16Z</time>
      </trkpt>
      <trkpt lat="59.340559" lon="18.085462">
        <ele>0</ele>
        <time>2019-12-24T19:40:46Z</time>
      </trkpt>
      <trkpt lat="59.340641" lon="18.085546">
        <ele>13</ele>
        <time>2019-12-24T19:41:06Z</time>
      </trkpt>
      <trkpt lat="59.340642" lon="18.085724">
        <ele>0</ele>
        <time>2019-12-24T19:41:30Z</time>
      </trkpt>
      <trkpt lat="59.34065" lon="18.085547">
        <ele>0</ele>
        <time>2019-12-24T19:41:44Z</time>
      </trkpt>
      <trkpt lat="59.340561" lon="18.085597">
        <ele>18</ele>
        <time>2019-12-24T19:42:24Z</time>
      </trkpt>
      <trkpt lat="59.340501" lon="18.085452">
        <ele>0</ele>
        <time>2019-12-24T19:42:50Z</time>
      </trkpt>
      <trkpt lat="59.34055" lon="18.0856">
        <ele>16</ele>
        <time>2019-12-24T19:44:04Z</time>
      </trkpt>
      <trkpt lat="59.34059" lon="18.085439">
        <ele>0</ele>
        <time>2019-12-24T19:44:26Z</time>
      </trkpt>
      <trkpt lat="59.340515" lon="18.085333">
        <ele>16</ele>
        <time>2019-12-24T19:44:36Z</time>
      </trkpt>
      <trkpt lat="59.340434" lon="18.085417">
        <ele>16</ele>
        <time>2019-12-24T19:44:56Z</time>
      </trkpt>
      <trkpt lat="59.340516" lon="18.085502">
        <ele>14</ele>
        <time>2019-12-24T19:45:21Z</time>
      </trkpt>
      <trkpt lat="59.340477" lon="18.0857">
        <ele>0</ele>
        <time>2019-12-24T19:45:48Z</time>
      </trkpt>
      <trkpt lat="59.340535" lon="18.085556">
        <ele>15</ele>
        <time>2019-12-24T19:46:16Z</time>
      </trkpt>
      <trkpt lat="59.340445" lon="18.085518">
        <ele>0</ele>
        <time>2019-12-24T19:46:38Z</time>
      </trkpt>
      <trkpt lat="59.340433" lon="18.085337">
        <ele>0</ele>
        <time>2019-12-24T19:46:53Z</time>
      </trkpt>
      <trkpt lat="59.340427" lon="18.085527">
        <ele>20</ele>
        <time>2019-12-24T19:47:34Z</time>
      </trkpt>
      <trkpt lat="59.34036" lon="18.08538">
        <ele>0</ele>
        <time>2019-12-24T19:47:43Z</time>
      </trkpt>
      <trkpt lat="59.340443" lon="18.085291">
        <ele>0</ele>
        <time>2019-12-24T19:47:51Z</time>
      </trkpt>
      <trkpt lat="59.340533" lon="18.085269">
        <ele>14</ele>
        <time>2019-12-24T19:48:03Z</time>
      </trkpt>
      <trkpt lat="59.340459" lon="18.085289">
        <ele>14</ele>
        <time>2019-12-24T19:48:26Z</time>
      </trkpt>
    </trkseg>
  </trk>
</gpx>